sensor_id;sensor_type;location;lat;lon;timestamp;temperature;humidity
6468;DHT22;3267;48.794;9.928;2023-06-19T04:02:58;24.90;48.00
6468;DHT22;3267;48.794;9.928;2023-06-19T04:05:25;25.00;48.00
6468;DHT22;3267;48.794;9.928;2023-06-19T04:07:51;24.90;47.90
6468;DHT22;3267;48.794;9.928;2023-06-19T04:10:17;24.90;48.10
6468;DHT22;3267;48.794;9.928;2023-06-19T04:12:42;25.60;49.40
6468;DHT22;3267;48.794;9.928;2023-06-19T04:15:11;24.70;48.30
6468;DHT22;3267;48.794;9.928;2023-06-19T04:17:36;24.80;48.30
6468;DHT22;3267;48.794;9.928;2023-06-19T04:20:03;24.90;49.70
6468;DHT22;3267;48.794;9.928;2023-06-19T04:22:40;24.90;49.10
6468;DHT22;3267;48.794;9.928;2023-06-19T04:25:07;24.80;48.60
6468;DHT22;3267;48.794;9.928;2023-06-19T04:27:33;24.80;48.70
6468;DHT22;3267;48.794;9.928;2023-06-19T04:29:59;24.90;48.60
6468;DHT22;3267;48.794;9.928;2023-06-19T04:32:24;24.90;48.80
6468;DHT22;3267;48.794;9.928;2023-06-19T04:34:50;24.80;48.60
6468;DHT22;3267;48.794;9.928;2023-06-19T04:37:15;24.90;48.80
6468;DHT22;3267;48.794;9.928;2023-06-19T04:39:47;26.80;50.50
6468;DHT22;3267;48.794;9.928;2023-06-19T04:42:13;25.60;49.40
6468;DHT22;3267;48.794;9.928;2023-06-19T04:44:47;24.80;49.30
6468;DHT22;3267;48.794;9.928;2023-06-19T04:47:14;24.70;49.50
6468;DHT22;3267;48.794;9.928;2023-06-19T04:49:41;25.10;50.00
6468;DHT22;3267;48.794;9.928;2023-06-19T04:52:06;24.70;49.90
6468;DHT22;3267;48.794;9.928;2023-06-19T04:54:32;24.70;50.00
6468;DHT22;3267;48.794;9.928;2023-06-19T04:56:58;24.70;50.20
6468;DHT22;3267;48.794;9.928;2023-06-19T04:59:24;24.80;49.70
6468;DHT22;3267;48.794;9.928;2023-06-19T05:01:50;24.70;49.80
6468;DHT22;3267;48.794;9.928;2023-06-19T05:04:19;24.70;50.20
6468;DHT22;3267;48.794;9.928;2023-06-19T05:06:45;24.70;49.70
6468;DHT22;3267;48.794;9.928;2023-06-19T05:09:10;24.70;50.10
6468;DHT22;3267;48.794;9.928;2023-06-19T05:11:36;24.60;50.30
6468;DHT22;3267;48.794;9.928;2023-06-19T05:14:02;24.70;49.90
6468;DHT22;3267;48.794;9.928;2023-06-19T05:16:28;24.70;50.30
6468;DHT22;3267;48.794;9.928;2023-06-19T05:18:54;24.70;50.30
6468;DHT22;3267;48.794;9.928;2023-06-19T05:21:19;24.70;50.00
6468;DHT22;3267;48.794;9.928;2023-06-19T05:23:45;24.80;50.50
6468;DHT22;3267;48.794;9.928;2023-06-19T05:26:19;25.10;50.10
6468;DHT22;3267;48.794;9.928;2023-06-19T05:28:45;24.80;50.20
6468;DHT22;3267;48.794;9.928;2023-06-19T05:31:11;24.80;50.40
6468;DHT22;3267;48.794;9.928;2023-06-19T05:33:36;24.80;50.70
6468;DHT22;3267;48.794;9.928;2023-06-19T05:36:02;24.80;50.30
6468;DHT22;3267;48.794;9.928;2023-06-19T05:38:28;24.90;49.80
6468;DHT22;3267;48.794;9.928;2023-06-19T05:40:56;25.10;50.00
6468;DHT22;3267;48.794;9.928;2023-06-19T05:43:22;24.90;49.90
6468;DHT22;3267;48.794;9.928;2023-06-19T05:45:48;25.00;49.80
6468;DHT22;3267;48.794;9.928;2023-06-19T05:48:13;25.00;49.70
6468;DHT22;3267;48.794;9.928;2023-06-19T05:50:39;25.10;49.90
6468;DHT22;3267;48.794;9.928;2023-06-19T05:53:05;24.90;49.90
6468;DHT22;3267;48.794;9.928;2023-06-19T05:55:32;25.10;49.90
6468;DHT22;3267;48.794;9.928;2023-06-19T05:57:58;25.00;49.80
6468;DHT22;3267;48.794;9.928;2023-06-19T06:00:23;25.00;50.60
6468;DHT22;3267;48.794;9.928;2023-06-19T06:02:49;25.10;49.90
6468;DHT22;3267;48.794;9.928;2023-06-19T06:05:17;25.10;50.10
6468;DHT22;3267;48.794;9.928;2023-06-19T06:07:44;25.00;50.00
6468;DHT22;3267;48.794;9.928;2023-06-19T06:10:10;25.40;50.30
6468;DHT22;3267;48.794;9.928;2023-06-19T06:12:36;25.00;50.10
6468;DHT22;3267;48.794;9.928;2023-06-19T06:15:03;24.90;50.40
6468;DHT22;3267;48.794;9.928;2023-06-19T06:17:29;25.00;50.70
6468;DHT22;3267;48.794;9.928;2023-06-19T06:19:55;25.40;51.30
6468;DHT22;3267;48.794;9.928;2023-06-19T06:22:20;25.00;50.60
6468;DHT22;3267;48.794;9.928;2023-06-19T06:24:46;25.00;51.10
6468;DHT22;3267;48.794;9.928;2023-06-19T06:27:12;25.10;50.30
6468;DHT22;3267;48.794;9.928;2023-06-19T06:29:39;25.10;50.20
6468;DHT22;3267;48.794;9.928;2023-06-19T06:32:07;25.30;51.80
6468;DHT22;3267;48.794;9.928;2023-06-19T06:34:34;25.10;50.50
6468;DHT22;3267;48.794;9.928;2023-06-19T06:37:00;25.20;50.40
6468;DHT22;3267;48.794;9.928;2023-06-19T06:39:26;25.20;50.50
6468;DHT22;3267;48.794;9.928;2023-06-19T06:41:52;25.40;50.60
6468;DHT22;3267;48.794;9.928;2023-06-19T06:44:18;25.40;50.40
6468;DHT22;3267;48.794;9.928;2023-06-19T06:46:43;25.40;50.40
6468;DHT22;3267;48.794;9.928;2023-06-19T06:49:09;25.50;50.50
6468;DHT22;3267;48.794;9.928;2023-06-19T06:51:35;25.50;50.20
6468;DHT22;3267;48.794;9.928;2023-06-19T06:54:00;25.60;50.30
6468;DHT22;3267;48.794;9.928;2023-06-19T06:56:27;25.60;50.00
6468;DHT22;3267;48.794;9.928;2023-06-19T06:58:52;25.70;50.50
6468;DHT22;3267;48.794;9.928;2023-06-19T07:01:18;25.70;50.40
6468;DHT22;3267;48.794;9.928;2023-06-19T07:03:44;25.60;50.10
6468;DHT22;3267;48.794;9.928;2023-06-19T07:06:09;25.80;49.90
6468;DHT22;3267;48.794;9.928;2023-06-19T07:08:35;25.80;50.30
6468;DHT22;3267;48.794;9.928;2023-06-19T07:11:00;25.80;50.50
6468;DHT22;3267;48.794;9.928;2023-06-19T07:13:26;25.80;50.40
6468;DHT22;3267;48.794;9.928;2023-06-19T07:15:52;25.80;50.60
6468;DHT22;3267;48.794;9.928;2023-06-19T07:18:18;25.90;50.70
6468;DHT22;3267;48.794;9.928;2023-06-19T07:20:43;25.90;50.20
6468;DHT22;3267;48.794;9.928;2023-06-19T07:23:10;26.00;49.90
6468;DHT22;3267;48.794;9.928;2023-06-19T07:25:36;26.00;51.00
6468;DHT22;3267;48.794;9.928;2023-06-19T07:28:02;26.00;50.30
6468;DHT22;3267;48.794;9.928;2023-06-19T07:30:30;26.10;50.20
6468;DHT22;3267;48.794;9.928;2023-06-19T07:32:55;26.10;50.50
6468;DHT22;3267;48.794;9.928;2023-06-19T07:35:24;26.20;50.30
6468;DHT22;3267;48.794;9.928;2023-06-19T07:37:50;26.20;50.40
6468;DHT22;3267;48.794;9.928;2023-06-19T07:40:15;26.20;50.00
6468;DHT22;3267;48.794;9.928;2023-06-19T07:42:41;26.30;50.20
6468;DHT22;3267;48.794;9.928;2023-06-19T07:45:08;26.30;50.30
6468;DHT22;3267;48.794;9.928;2023-06-19T07:47:33;26.40;50.20
6468;DHT22;3267;48.794;9.928;2023-06-19T07:49:59;26.40;50.60
6468;DHT22;3267;48.794;9.928;2023-06-19T07:52:24;26.40;50.40
6468;DHT22;3267;48.794;9.928;2023-06-19T07:54:55;26.50;50.40
6468;DHT22;3267;48.794;9.928;2023-06-19T07:57:21;26.50;50.60
6468;DHT22;3267;48.794;9.928;2023-06-19T07:59:48;26.50;50.80
6468;DHT22;3267;48.794;9.928;2023-06-19T08:02:14;26.50;51.90
6468;DHT22;3267;48.794;9.928;2023-06-19T08:04:40;26.50;51.00
6468;DHT22;3267;48.794;9.928;2023-06-19T08:07:06;26.50;50.60
6468;DHT22;3267;48.794;9.928;2023-06-19T08:09:31;26.60;50.60
6468;DHT22;3267;48.794;9.928;2023-06-19T08:11:57;26.90;51.30
6468;DHT22;3267;48.794;9.928;2023-06-19T08:14:23;26.90;51.30
6468;DHT22;3267;48.794;9.928;2023-06-19T08:16:48;26.90;50.90
6468;DHT22;3267;48.794;9.928;2023-06-19T08:19:14;27.20;50.70
6468;DHT22;3267;48.794;9.928;2023-06-19T08:21:40;27.20;50.50
6468;DHT22;3267;48.794;9.928;2023-06-19T08:24:06;27.50;51.00
6468;DHT22;3267;48.794;9.928;2023-06-19T08:26:31;27.40;51.10
6468;DHT22;3267;48.794;9.928;2023-06-19T08:28:57;28.70;51.90
6468;DHT22;3267;48.794;9.928;2023-06-19T08:31:24;27.50;50.90
6468;DHT22;3267;48.794;9.928;2023-06-19T08:33:56;27.60;51.30
6468;DHT22;3267;48.794;9.928;2023-06-19T08:36:22;27.80;51.10
6468;DHT22;3267;48.794;9.928;2023-06-19T08:38:48;27.90;50.90
6468;DHT22;3267;48.794;9.928;2023-06-19T08:41:18;28.00;51.10
6468;DHT22;3267;48.794;9.928;2023-06-19T08:43:45;28.00;50.80
6468;DHT22;3267;48.794;9.928;2023-06-19T08:46:13;28.00;51.10
6468;DHT22;3267;48.794;9.928;2023-06-19T08:48:40;28.00;50.80
6468;DHT22;3267;48.794;9.928;2023-06-19T08:51:07;28.10;50.60
6468;DHT22;3267;48.794;9.928;2023-06-19T08:53:34;28.20;50.40
6468;DHT22;3267;48.794;9.928;2023-06-19T08:56:02;28.40;50.70
6468;DHT22;3267;48.794;9.928;2023-06-19T08:58:27;28.40;50.30
6468;DHT22;3267;48.794;9.928;2023-06-19T09:00:53;28.50;50.30
6468;DHT22;3267;48.794;9.928;2023-06-19T09:03:22;28.40;50.30
6468;DHT22;3267;48.794;9.928;2023-06-19T09:05:48;28.50;50.50
6468;DHT22;3267;48.794;9.928;2023-06-19T09:08:18;28.50;50.30
6468;DHT22;3267;48.794;9.928;2023-06-19T09:11:04;28.50;50.40
6468;DHT22;3267;48.794;9.928;2023-06-19T09:13:31;28.60;50.30
6468;DHT22;3267;48.794;9.928;2023-06-19T09:16:08;28.50;50.20
6468;DHT22;3267;48.794;9.928;2023-06-19T09:18:51;28.60;50.30
6468;DHT22;3267;48.794;9.928;2023-06-19T09:21:21;28.60;50.50
6468;DHT22;3267;48.794;9.928;2023-06-19T09:23:50;28.60;50.20
6468;DHT22;3267;48.794;9.928;2023-06-19T09:26:19;28.70;50.20
6468;DHT22;3267;48.794;9.928;2023-06-19T09:28:46;28.80;50.20
6468;DHT22;3267;48.794;9.928;2023-06-19T09:31:12;28.80;49.90
6468;DHT22;3267;48.794;9.928;2023-06-19T09:33:39;28.90;49.70
6468;DHT22;3267;48.794;9.928;2023-06-19T09:36:05;28.90;49.80
6468;DHT22;3267;48.794;9.928;2023-06-19T09:38:38;28.80;49.80
6468;DHT22;3267;48.794;9.928;2023-06-19T09:41:06;28.90;49.90
6468;DHT22;3267;48.794;9.928;2023-06-19T09:43:36;28.90;49.80
6468;DHT22;3267;48.794;9.928;2023-06-19T09:46:03;28.90;49.80
6468;DHT22;3267;48.794;9.928;2023-06-19T09:48:32;28.90;49.70
6468;DHT22;3267;48.794;9.928;2023-06-19T09:53:36;28.90;50.00
6468;DHT22;3267;48.794;9.928;2023-06-19T09:56:02;28.90;49.90
6468;DHT22;3267;48.794;9.928;2023-06-19T09:58:29;29.00;50.10
6468;DHT22;3267;48.794;9.928;2023-06-19T10:00:56;29.00;50.10
6468;DHT22;3267;48.794;9.928;2023-06-19T10:03:30;29.10;50.00
6468;DHT22;3267;48.794;9.928;2023-06-19T10:05:58;29.10;50.10
6468;DHT22;3267;48.794;9.928;2023-06-19T10:08:41;29.20;50.00
6468;DHT22;3267;48.794;9.928;2023-06-19T10:11:07;29.30;50.00
6468;DHT22;3267;48.794;9.928;2023-06-19T10:13:38;29.50;49.80
6468;DHT22;3267;48.794;9.928;2023-06-19T10:16:05;29.50;49.80
6468;DHT22;3267;48.794;9.928;2023-06-19T10:18:45;29.50;49.60
6468;DHT22;3267;48.794;9.928;2023-06-19T10:21:21;29.40;49.60
6468;DHT22;3267;48.794;9.928;2023-06-19T10:23:57;29.50;49.50
6468;DHT22;3267;48.794;9.928;2023-06-19T10:26:34;29.60;49.60
6468;DHT22;3267;48.794;9.928;2023-06-19T10:29:00;29.70;50.10
6468;DHT22;3267;48.794;9.928;2023-06-19T10:31:26;29.70;49.40
6468;DHT22;3267;48.794;9.928;2023-06-19T10:33:54;29.80;49.50
6468;DHT22;3267;48.794;9.928;2023-06-19T10:36:21;29.80;49.40
6468;DHT22;3267;48.794;9.928;2023-06-19T10:38:48;29.90;49.30
6468;DHT22;3267;48.794;9.928;2023-06-19T10:41:19;30.10;49.40
6468;DHT22;3267;48.794;9.928;2023-06-19T10:46:38;30.40;49.10
6468;DHT22;3267;48.794;9.928;2023-06-19T10:49:05;30.50;48.80
6468;DHT22;3267;48.794;9.928;2023-06-19T10:51:36;30.60;48.50
6468;DHT22;3267;48.794;9.928;2023-06-19T10:54:02;30.60;48.50
6468;DHT22;3267;48.794;9.928;2023-06-19T10:56:28;30.80;50.70
6468;DHT22;3267;48.794;9.928;2023-06-19T11:04:03;31.10;48.10
6468;DHT22;3267;48.794;9.928;2023-06-19T11:06:29;31.20;48.10
6468;DHT22;3267;48.794;9.928;2023-06-19T11:08:55;31.30;48.30
6468;DHT22;3267;48.794;9.928;2023-06-19T11:11:21;31.30;47.90
6468;DHT22;3267;48.794;9.928;2023-06-19T11:13:47;31.30;47.80
6468;DHT22;3267;48.794;9.928;2023-06-19T11:16:14;31.40;47.90
6468;DHT22;3267;48.794;9.928;2023-06-19T11:18:40;31.20;47.50
6468;DHT22;3267;48.794;9.928;2023-06-19T11:21:06;31.30;47.70
6468;DHT22;3267;48.794;9.928;2023-06-19T11:23:31;31.30;47.60
6468;DHT22;3267;48.794;9.928;2023-06-19T11:26:04;31.30;47.50
6468;DHT22;3267;48.794;9.928;2023-06-19T11:28:31;31.20;47.30
6468;DHT22;3267;48.794;9.928;2023-06-19T11:31:01;31.30;47.10
6468;DHT22;3267;48.794;9.928;2023-06-19T11:33:28;31.40;47.00
6468;DHT22;3267;48.794;9.928;2023-06-19T11:35:59;31.40;47.00
6468;DHT22;3267;48.794;9.928;2023-06-19T11:38:26;31.40;46.80
6468;DHT22;3267;48.794;9.928;2023-06-19T11:40:53;31.40;47.00
6468;DHT22;3267;48.794;9.928;2023-06-19T11:43:30;31.40;46.90
6468;DHT22;3267;48.794;9.928;2023-06-19T11:46:03;31.40;47.00
6468;DHT22;3267;48.794;9.928;2023-06-19T11:48:29;31.40;46.70
6468;DHT22;3267;48.794;9.928;2023-06-19T11:50:55;31.30;47.60
6468;DHT22;3267;48.794;9.928;2023-06-19T11:53:22;31.40;46.60
6468;DHT22;3267;48.794;9.928;2023-06-19T11:55:48;31.20;46.20
6468;DHT22;3267;48.794;9.928;2023-06-19T11:58:14;31.30;46.50
6468;DHT22;3267;48.794;9.928;2023-06-19T12:00:45;31.50;46.60
6468;DHT22;3267;48.794;9.928;2023-06-19T12:03:10;31.50;46.50
6468;DHT22;3267;48.794;9.928;2023-06-19T12:05:37;31.70;46.20
6468;DHT22;3267;48.794;9.928;2023-06-19T12:08:03;31.80;46.20
6468;DHT22;3267;48.794;9.928;2023-06-19T12:10:33;32.00;46.20
6468;DHT22;3267;48.794;9.928;2023-06-19T12:12:59;32.10;45.80
6468;DHT22;3267;48.794;9.928;2023-06-19T12:15:25;32.20;45.60
6468;DHT22;3267;48.794;9.928;2023-06-19T12:17:51;32.20;45.60
6468;DHT22;3267;48.794;9.928;2023-06-19T12:20:17;32.20;45.70
6468;DHT22;3267;48.794;9.928;2023-06-19T12:22:43;32.30;45.80
6468;DHT22;3267;48.794;9.928;2023-06-19T12:25:09;32.40;45.50
6468;DHT22;3267;48.794;9.928;2023-06-19T12:27:37;32.50;45.00
6468;DHT22;3267;48.794;9.928;2023-06-19T12:30:03;32.60;45.30
6468;DHT22;3267;48.794;9.928;2023-06-19T12:32:29;32.70;45.20
6468;DHT22;3267;48.794;9.928;2023-06-19T12:34:55;32.70;44.20
6468;DHT22;3267;48.794;9.928;2023-06-19T12:37:20;32.90;44.80
6468;DHT22;3267;48.794;9.928;2023-06-19T12:39:52;32.90;46.50
6468;DHT22;3267;48.794;9.928;2023-06-19T12:42:18;33.10;46.30
6468;DHT22;3267;48.794;9.928;2023-06-19T12:44:43;33.20;45.40
6468;DHT22;3267;48.794;9.928;2023-06-19T12:47:12;33.30;44.90
6468;DHT22;3267;48.794;9.928;2023-06-19T12:49:38;33.40;44.60
6468;DHT22;3267;48.794;9.928;2023-06-19T12:52:04;33.40;44.60
6468;DHT22;3267;48.794;9.928;2023-06-19T12:54:30;33.50;44.60
6468;DHT22;3267;48.794;9.928;2023-06-19T12:56:57;33.40;45.00
6468;DHT22;3267;48.794;9.928;2023-06-19T12:59:22;33.40;45.30
6468;DHT22;3267;48.794;9.928;2023-06-19T13:01:48;33.40;45.40
6468;DHT22;3267;48.794;9.928;2023-06-19T13:04:13;33.40;45.00
6468;DHT22;3267;48.794;9.928;2023-06-19T13:06:40;33.40;44.50
6468;DHT22;3267;48.794;9.928;2023-06-19T13:09:06;33.40;44.60
6468;DHT22;3267;48.794;9.928;2023-06-19T13:11:32;33.40;45.00
6468;DHT22;3267;48.794;9.928;2023-06-19T13:14:00;33.50;45.60
6468;DHT22;3267;48.794;9.928;2023-06-19T13:16:26;33.60;45.80
6468;DHT22;3267;48.794;9.928;2023-06-19T13:18:51;33.70;45.10
6468;DHT22;3267;48.794;9.928;2023-06-19T13:21:17;33.70;45.40
6468;DHT22;3267;48.794;9.928;2023-06-19T13:23:43;33.80;45.10
6468;DHT22;3267;48.794;9.928;2023-06-19T13:26:09;33.70;45.10
6468;DHT22;3267;48.794;9.928;2023-06-19T13:28:35;34.10;45.40
6468;DHT22;3267;48.794;9.928;2023-06-19T13:31:01;34.40;45.50
6468;DHT22;3267;48.794;9.928;2023-06-19T13:33:26;34.70;44.60
6468;DHT22;3267;48.794;9.928;2023-06-19T13:35:52;34.90;43.70
6468;DHT22;3267;48.794;9.928;2023-06-19T13:38:18;35.10;44.40
6468;DHT22;3267;48.794;9.928;2023-06-19T13:40:44;35.20;43.70
6468;DHT22;3267;48.794;9.928;2023-06-19T13:43:10;35.30;43.20
6468;DHT22;3267;48.794;9.928;2023-06-19T13:45:36;35.60;42.90
6468;DHT22;3267;48.794;9.928;2023-06-19T13:48:04;35.70;42.70
6468;DHT22;3267;48.794;9.928;2023-06-19T13:50:30;35.70;42.70
6468;DHT22;3267;48.794;9.928;2023-06-19T13:52:57;35.70;42.00
6468;DHT22;3267;48.794;9.928;2023-06-19T13:55:23;35.90;42.50
6468;DHT22;3267;48.794;9.928;2023-06-19T13:57:49;35.90;42.80
6468;DHT22;3267;48.794;9.928;2023-06-19T14:00:15;36.30;42.70
6468;DHT22;3267;48.794;9.928;2023-06-19T14:02:41;36.50;42.60
6468;DHT22;3267;48.794;9.928;2023-06-19T14:05:08;36.60;41.70
6468;DHT22;3267;48.794;9.928;2023-06-19T14:07:35;36.90;41.50
6468;DHT22;3267;48.794;9.928;2023-06-19T14:10:02;37.10;41.70
6468;DHT22;3267;48.794;9.928;2023-06-19T14:12:28;38.30;42.20
6468;DHT22;3267;48.794;9.928;2023-06-19T14:14:54;37.40;40.50
6468;DHT22;3267;48.794;9.928;2023-06-19T14:17:20;37.70;40.10
6468;DHT22;3267;48.794;9.928;2023-06-19T14:19:46;37.90;39.50
6468;DHT22;3267;48.794;9.928;2023-06-19T14:22:11;38.20;40.20
6468;DHT22;3267;48.794;9.928;2023-06-19T14:24:37;38.40;40.70
6468;DHT22;3267;48.794;9.928;2023-06-19T14:27:03;38.60;39.50
6468;DHT22;3267;48.794;9.928;2023-06-19T14:29:29;38.80;39.60
6468;DHT22;3267;48.794;9.928;2023-06-19T14:31:54;39.00;39.20
6468;DHT22;3267;48.794;9.928;2023-06-19T14:34:20;39.20;39.50
6468;DHT22;3267;48.794;9.928;2023-06-19T14:36:46;39.30;39.90
6468;DHT22;3267;48.794;9.928;2023-06-19T14:39:12;39.40;39.60
6468;DHT22;3267;48.794;9.928;2023-06-19T14:41:38;39.70;39.50
6468;DHT22;3267;48.794;9.928;2023-06-19T14:44:05;39.90;40.10
6468;DHT22;3267;48.794;9.928;2023-06-19T14:46:31;40.10;38.60
6468;DHT22;3267;48.794;9.928;2023-06-19T14:48:58;40.30;38.50
6468;DHT22;3267;48.794;9.928;2023-06-19T14:51:25;40.50;38.70
6468;DHT22;3267;48.794;9.928;2023-06-19T14:53:51;40.70;38.50
6468;DHT22;3267;48.794;9.928;2023-06-19T14:56:17;40.90;38.10
6468;DHT22;3267;48.794;9.928;2023-06-19T14:58:42;41.00;38.60
6468;DHT22;3267;48.794;9.928;2023-06-19T15:01:08;41.00;38.20
6468;DHT22;3267;48.794;9.928;2023-06-19T15:03:34;40.90;38.10
6468;DHT22;3267;48.794;9.928;2023-06-19T15:06:00;40.80;37.80
6468;DHT22;3267;48.794;9.928;2023-06-19T15:08:26;40.60;37.10
6468;DHT22;3267;48.794;9.928;2023-06-19T15:10:52;40.50;37.60
6468;DHT22;3267;48.794;9.928;2023-06-19T15:13:18;40.40;38.60
6468;DHT22;3267;48.794;9.928;2023-06-19T15:15:44;40.30;38.50
6468;DHT22;3267;48.794;9.928;2023-06-19T15:18:11;40.30;38.80
6468;DHT22;3267;48.794;9.928;2023-06-19T15:20:36;40.20;39.30
6468;DHT22;3267;48.794;9.928;2023-06-19T15:23:05;40.10;38.40
6468;DHT22;3267;48.794;9.928;2023-06-19T15:25:31;40.00;39.20
6468;DHT22;3267;48.794;9.928;2023-06-19T15:27:56;40.00;39.90
6468;DHT22;3267;48.794;9.928;2023-06-19T15:30:22;40.00;39.00
6468;DHT22;3267;48.794;9.928;2023-06-19T15:32:48;40.10;38.70
6468;DHT22;3267;48.794;9.928;2023-06-19T15:35:14;40.30;39.00
6468;DHT22;3267;48.794;9.928;2023-06-19T15:37:40;40.50;38.90
6468;DHT22;3267;48.794;9.928;2023-06-19T15:40:06;40.40;38.30
6468;DHT22;3267;48.794;9.928;2023-06-19T15:42:32;40.20;38.60
6468;DHT22;3267;48.794;9.928;2023-06-19T15:44:57;40.00;38.90
6468;DHT22;3267;48.794;9.928;2023-06-19T15:47:23;39.90;38.70
6468;DHT22;3267;48.794;9.928;2023-06-19T15:49:49;39.70;38.60
6468;DHT22;3267;48.794;9.928;2023-06-19T15:52:15;39.40;38.30
6468;DHT22;3267;48.794;9.928;2023-06-19T15:54:40;39.20;37.60
6468;DHT22;3267;48.794;9.928;2023-06-19T15:57:07;39.00;38.70
6468;DHT22;3267;48.794;9.928;2023-06-19T15:59:33;38.90;38.30
6468;DHT22;3267;48.794;9.928;2023-06-19T16:01:58;38.70;39.40
6468;DHT22;3267;48.794;9.928;2023-06-19T16:04:24;38.40;38.70
6468;DHT22;3267;48.794;9.928;2023-06-19T16:06:49;38.20;39.20
6468;DHT22;3267;48.794;9.928;2023-06-19T16:09:15;38.00;38.70
6468;DHT22;3267;48.794;9.928;2023-06-19T16:11:42;37.80;39.70
6468;DHT22;3267;48.794;9.928;2023-06-19T16:14:07;37.60;40.30
6468;DHT22;3267;48.794;9.928;2023-06-19T16:16:36;37.30;40.30
6468;DHT22;3267;48.794;9.928;2023-06-19T16:19:02;37.10;40.80
6468;DHT22;3267;48.794;9.928;2023-06-19T16:21:27;36.90;40.20
6468;DHT22;3267;48.794;9.928;2023-06-19T16:23:53;36.60;40.60
6468;DHT22;3267;48.794;9.928;2023-06-19T16:26:19;36.40;41.10
6468;DHT22;3267;48.794;9.928;2023-06-19T16:28:44;36.20;40.80
6468;DHT22;3267;48.794;9.928;2023-06-19T16:31:10;36.00;41.10
6468;DHT22;3267;48.794;9.928;2023-06-19T16:33:36;35.80;41.20
6468;DHT22;3267;48.794;9.928;2023-06-19T16:36:04;35.70;41.90
6468;DHT22;3267;48.794;9.928;2023-06-19T16:38:30;35.50;41.60
6468;DHT22;3267;48.794;9.928;2023-06-19T16:40:56;35.30;41.80
6468;DHT22;3267;48.794;9.928;2023-06-19T16:43:22;35.10;41.30
6468;DHT22;3267;48.794;9.928;2023-06-19T16:45:47;34.90;40.50
6468;DHT22;3267;48.794;9.928;2023-06-19T16:48:13;34.80;41.50
6468;DHT22;3267;48.794;9.928;2023-06-19T16:50:38;34.60;40.50
6468;DHT22;3267;48.794;9.928;2023-06-19T16:53:05;34.40;43.00
6468;DHT22;3267;48.794;9.928;2023-06-19T16:55:31;34.40;43.90
6468;DHT22;3267;48.794;9.928;2023-06-19T16:57:57;34.20;42.60
6468;DHT22;3267;48.794;9.928;2023-06-19T17:00:22;34.10;44.10
6468;DHT22;3267;48.794;9.928;2023-06-19T17:02:48;34.00;44.30
6468;DHT22;3267;48.794;9.928;2023-06-19T17:05:17;34.00;44.20
6468;DHT22;3267;48.794;9.928;2023-06-19T17:07:43;33.80;42.70
6468;DHT22;3267;48.794;9.928;2023-06-19T17:10:12;33.70;43.10
6468;DHT22;3267;48.794;9.928;2023-06-19T17:12:38;33.60;43.40
6468;DHT22;3267;48.794;9.928;2023-06-19T17:15:04;33.60;43.70
6468;DHT22;3267;48.794;9.928;2023-06-19T17:17:29;33.60;43.90
6468;DHT22;3267;48.794;9.928;2023-06-19T17:19:55;33.50;44.40
6468;DHT22;3267;48.794;9.928;2023-06-19T17:22:21;33.50;44.50
6468;DHT22;3267;48.794;9.928;2023-06-19T17:24:46;33.50;44.60
6468;DHT22;3267;48.794;9.928;2023-06-19T17:27:12;33.30;44.50
6468;DHT22;3267;48.794;9.928;2023-06-19T17:29:37;33.30;44.70
6468;DHT22;3267;48.794;9.928;2023-06-19T17:32:04;33.30;45.00
6468;DHT22;3267;48.794;9.928;2023-06-19T17:34:29;33.30;45.30
6468;DHT22;3267;48.794;9.928;2023-06-19T17:36:55;33.30;45.50
6468;DHT22;3267;48.794;9.928;2023-06-19T17:39:21;33.30;45.60
6468;DHT22;3267;48.794;9.928;2023-06-19T17:41:46;33.30;46.40
6468;DHT22;3267;48.794;9.928;2023-06-19T17:44:12;33.20;46.00
6468;DHT22;3267;48.794;9.928;2023-06-19T17:46:37;33.20;46.80
6468;DHT22;3267;48.794;9.928;2023-06-19T17:49:04;33.20;47.20
6468;DHT22;3267;48.794;9.928;2023-06-19T17:51:31;33.10;46.90
6468;DHT22;3267;48.794;9.928;2023-06-19T17:53:56;33.10;46.80
6468;DHT22;3267;48.794;9.928;2023-06-19T17:56:22;32.90;46.70
6468;DHT22;3267;48.794;9.928;2023-06-19T17:58:48;32.90;46.50
6468;DHT22;3267;48.794;9.928;2023-06-19T18:01:13;32.80;46.70
6468;DHT22;3267;48.794;9.928;2023-06-19T18:03:40;32.80;47.20
6468;DHT22;3267;48.794;9.928;2023-06-19T18:06:06;32.90;47.50
6468;DHT22;3267;48.794;9.928;2023-06-19T18:08:31;32.90;47.50
6468;DHT22;3267;48.794;9.928;2023-06-19T18:10:57;33.00;47.90
6468;DHT22;3267;48.794;9.928;2023-06-19T18:13:24;33.10;48.30
6468;DHT22;3267;48.794;9.928;2023-06-19T18:15:49;33.00;48.30
6468;DHT22;3267;48.794;9.928;2023-06-19T18:18:15;33.00;48.00
6468;DHT22;3267;48.794;9.928;2023-06-19T18:20:41;32.90;48.00
6468;DHT22;3267;48.794;9.928;2023-06-19T18:23:07;32.90;48.10
6468;DHT22;3267;48.794;9.928;2023-06-19T18:25:33;32.80;48.30
6468;DHT22;3267;48.794;9.928;2023-06-19T18:27:58;32.90;48.60
6468;DHT22;3267;48.794;9.928;2023-06-19T18:30:25;33.00;48.50
6468;DHT22;3267;48.794;9.928;2023-06-19T18:32:51;33.00;48.40
6468;DHT22;3267;48.794;9.928;2023-06-19T18:35:16;33.00;48.40
6468;DHT22;3267;48.794;9.928;2023-06-19T18:37:42;32.90;48.40
6468;DHT22;3267;48.794;9.928;2023-06-19T18:40:08;32.80;48.50
6468;DHT22;3267;48.794;9.928;2023-06-19T18:42:34;32.60;48.30
6468;DHT22;3267;48.794;9.928;2023-06-19T18:44:59;32.40;47.70
6468;DHT22;3267;48.794;9.928;2023-06-19T18:47:26;32.10;48.00
6468;DHT22;3267;48.794;9.928;2023-06-19T18:49:52;32.10;48.20
6468;DHT22;3267;48.794;9.928;2023-06-19T18:52:17;31.90;48.40
6468;DHT22;3267;48.794;9.928;2023-06-19T18:54:43;31.90;48.60
6468;DHT22;3267;48.794;9.928;2023-06-19T18:57:08;31.80;48.70
6468;DHT22;3267;48.794;9.928;2023-06-19T18:59:34;31.80;48.90
6468;DHT22;3267;48.794;9.928;2023-06-19T19:02:00;31.70;49.00
6468;DHT22;3267;48.794;9.928;2023-06-19T19:04:26;31.60;49.10
6468;DHT22;3267;48.794;9.928;2023-06-19T19:06:52;31.60;49.30
6468;DHT22;3267;48.794;9.928;2023-06-19T19:09:18;31.60;49.80
6468;DHT22;3267;48.794;9.928;2023-06-19T19:11:44;31.60;49.90
6468;DHT22;3267;48.794;9.928;2023-06-19T19:14:12;31.60;49.80
6468;DHT22;3267;48.794;9.928;2023-06-19T19:16:37;31.50;49.70
6468;DHT22;3267;48.794;9.928;2023-06-19T19:19:03;31.30;49.70
6468;DHT22;3267;48.794;9.928;2023-06-19T19:21:29;31.30;49.70
6468;DHT22;3267;48.794;9.928;2023-06-19T19:23:54;31.10;49.60
6468;DHT22;3267;48.794;9.928;2023-06-19T19:26:20;31.10;50.10
6468;DHT22;3267;48.794;9.928;2023-06-19T19:28:45;31.10;50.10
6468;DHT22;3267;48.794;9.928;2023-06-19T19:31:11;31.00;50.20
6468;DHT22;3267;48.794;9.928;2023-06-19T19:33:37;31.00;50.90
6468;DHT22;3267;48.794;9.928;2023-06-19T19:36:02;31.10;50.40
6468;DHT22;3267;48.794;9.928;2023-06-19T19:38:30;31.00;50.30
6468;DHT22;3267;48.794;9.928;2023-06-19T19:40:55;30.90;50.20
6468;DHT22;3267;48.794;9.928;2023-06-19T19:43:21;30.80;50.30
6468;DHT22;3267;48.794;9.928;2023-06-19T19:45:47;30.80;50.50
6468;DHT22;3267;48.794;9.928;2023-06-19T19:48:12;30.70;50.40
6468;DHT22;3267;48.794;9.928;2023-06-19T19:50:38;30.70;50.50
6468;DHT22;3267;48.794;9.928;2023-06-19T19:53:04;30.50;50.40
6468;DHT22;3267;48.794;9.928;2023-06-19T19:55:29;30.50;50.30
6468;DHT22;3267;48.794;9.928;2023-06-19T19:57:55;30.30;50.30
6468;DHT22;3267;48.794;9.928;2023-06-19T20:00:23;30.10;50.10
6468;DHT22;3267;48.794;9.928;2023-06-19T20:02:49;30.40;50.30
6468;DHT22;3267;48.794;9.928;2023-06-19T20:05:15;29.80;50.00
6468;DHT22;3267;48.794;9.928;2023-06-19T20:07:40;29.70;49.80
6468;DHT22;3267;48.794;9.928;2023-06-19T20:10:06;29.60;49.90